createdAt,value
2018-03-11T06:30:33.632Z,21.23
2018-03-11T06:33:05.504Z,24.77
2018-03-11T06:35:37.392Z,22.17
2018-03-11T06:38:16.008Z,23.40
2018-03-11T06:40:47.899Z,23.17
2018-03-11T06:43:20.532Z,22.20
2018-03-11T06:45:52.664Z,21.93
2018-03-11T06:48:24.539Z,23.43
2018-03-11T06:50:56.427Z,22.00
2018-03-11T06:53:28.305Z,24.60
2018-03-11T06:56:00.228Z,20.53
2018-03-11T06:58:32.372Z,20.80
2018-03-11T07:01:04.259Z,19.23
2018-03-11T07:03:36.396Z,21.77
2018-03-11T07:06:08.564Z,21.97
2018-03-11T07:08:40.450Z,25.03
2018-03-11T07:11:12.332Z,25.43
2018-03-11T07:13:44.203Z,22.90
2018-03-11T07:16:16.136Z,23.00
2018-03-11T07:18:48.736Z,21.17
2018-03-11T07:21:20.633Z,18.97
2018-03-11T07:23:52.532Z,22.27
2018-03-11T07:26:24.668Z,21.07
2018-03-11T07:28:56.604Z,23.77
2018-03-11T07:31:28.624Z,23.20
2018-03-11T07:34:00.507Z,18.43
2018-03-11T07:36:32.395Z,24.43
2018-03-11T07:39:05.031Z,19.10
2018-03-11T07:41:36.923Z,24.00
2018-03-11T07:44:08.799Z,23.93
2018-03-11T07:46:41.451Z,23.40
2018-03-11T07:49:13.361Z,22.63
2018-03-11T07:51:45.524Z,24.00
2018-03-11T07:54:17.404Z,20.53
2018-03-11T07:56:49.296Z,17.63
2018-03-11T07:59:21.166Z,20.67
2018-03-11T08:01:53.056Z,19.50
2018-03-11T08:04:24.932Z,22.10
2018-03-11T08:06:56.815Z,21.33
2018-03-11T08:09:28.696Z,21.23
2018-03-11T08:12:00.584Z,22.43
2018-03-11T08:14:33.226Z,18.27
2018-03-11T08:17:05.111Z,21.40
2018-03-11T08:19:36.984Z,21.13
2018-03-11T08:22:09.637Z,19.37
2018-03-11T08:24:41.515Z,21.57
2018-03-11T08:27:14.170Z,23.70
2018-03-11T08:29:46.036Z,21.80
2018-03-11T08:32:17.923Z,21.20
2018-03-11T08:34:50.569Z,21.27
2018-03-11T08:37:22.457Z,21.90
2018-03-11T08:39:55.095Z,20.73
2018-03-11T08:42:26.979Z,19.80
2018-03-11T08:44:58.862Z,20.20
2018-03-11T08:47:31.514Z,21.60
2018-03-11T08:50:03.383Z,20.63
2018-03-11T08:52:35.273Z,17.80
2018-03-11T08:55:07.438Z,16.77
2018-03-11T08:57:39.320Z,14.93
2018-03-11T09:00:11.196Z,15.77
2018-03-11T09:02:43.079Z,14.13
2018-03-11T09:05:14.947Z,18.43
2018-03-11T09:07:46.836Z,12.70
2018-03-11T09:10:18.707Z,12.37
2018-03-11T09:12:50.615Z,14.47
2018-03-11T09:15:22.496Z,11.60
2018-03-11T09:17:54.384Z,13.10
2018-03-11T09:20:26.256Z,11.27
2018-03-11T09:22:58.145Z,14.73
2018-03-11T09:25:30.263Z,11.60
2018-03-11T09:28:02.152Z,10.30
2018-03-11T09:30:35.826Z,10.97
2018-03-11T09:33:07.991Z,10.10
2018-03-11T09:35:39.864Z,12.20
2018-03-11T09:38:11.743Z,11.33
2018-03-11T09:40:43.626Z,9.93
2018-03-11T09:43:15.716Z,9.90
2018-03-11T09:45:48.351Z,9.13
2018-03-11T09:48:20.231Z,7.97
2018-03-11T09:50:52.103Z,8.13
2018-03-11T09:53:23.992Z,8.17
2018-03-11T09:55:56.159Z,8.17
2018-03-11T09:58:28.811Z,8.27
2018-03-11T10:01:00.680Z,8.10
2018-03-11T10:03:33.376Z,6.93
2018-03-11T10:06:06.008Z,7.93
2018-03-11T10:08:37.960Z,7.17
2018-03-11T10:11:09.876Z,7.87
2018-03-11T10:13:42.520Z,7.07
2018-03-11T10:16:14.416Z,8.03
2018-03-11T10:18:47.048Z,11.07
2018-03-11T10:21:18.921Z,7.07
2018-03-11T10:23:50.814Z,7.57
2018-03-11T10:26:23.493Z,5.57
2018-03-11T10:28:56.134Z,5.60
2018-03-11T10:31:28.012Z,6.43
2018-03-11T10:34:00.689Z,7.73
2018-03-11T10:36:32.568Z,5.80
2018-03-11T10:39:04.736Z,7.40
2018-03-11T10:41:36.611Z,5.97
2018-03-11T10:44:08.487Z,5.33
2018-03-11T10:46:40.359Z,4.30
2018-03-11T10:49:12.292Z,4.53
2018-03-11T10:51:44.887Z,3.37
2018-03-11T10:54:16.767Z,4.73
2018-03-11T10:56:48.639Z,4.90
2018-03-11T10:59:20.519Z,4.23
2018-03-11T11:01:53.160Z,4.93
2018-03-11T11:04:25.047Z,2.80
2018-03-11T11:06:56.915Z,3.67
2018-03-11T11:09:29.571Z,2.93
2018-03-11T11:12:01.445Z,2.27
2018-03-11T11:14:33.319Z,3.00
2018-03-11T11:17:05.962Z,2.57
2018-03-11T11:19:37.846Z,3.40
2018-03-11T11:22:10.484Z,2.57
2018-03-11T11:24:42.368Z,3.70
2018-03-11T11:27:14.240Z,3.83
2018-03-11T11:29:46.123Z,3.50
2018-03-11T11:32:17.991Z,3.50
2018-03-11T11:34:49.880Z,2.37
2018-03-11T11:37:21.751Z,2.30
2018-03-11T11:39:53.868Z,3.57
2018-03-11T11:42:25.739Z,2.87
2018-03-11T11:44:57.619Z,2.97
2018-03-11T11:47:29.496Z,3.37
2018-03-11T11:50:01.399Z,3.43
2018-03-11T11:52:34.048Z,2.27
2018-03-11T11:55:06.972Z,4.00
2018-03-11T11:57:38.840Z,2.63
2018-03-11T12:00:10.996Z,4.57
2018-03-11T12:02:42.903Z,2.90
2018-03-11T12:05:15.024Z,3.33
2018-03-11T12:07:46.923Z,3.50
2018-03-11T12:10:18.799Z,2.93
2018-03-11T12:12:50.748Z,5.90
2018-03-11T12:15:22.713Z,2.67
2018-03-11T12:17:54.616Z,3.10
2018-03-11T12:20:27.511Z,2.77
2018-03-11T12:22:59.430Z,3.27
2018-03-11T12:25:31.538Z,3.37
2018-03-11T12:28:03.423Z,2.07
2018-03-11T12:30:35.300Z,3.10
2018-03-11T12:33:07.189Z,6.07
2018-03-11T12:35:39.064Z,2.30
2018-03-11T12:38:11.960Z,4.17
2018-03-11T12:40:43.827Z,3.07
2018-03-11T12:43:15.725Z,2.97
2018-03-11T12:45:47.687Z,1.50
2018-03-11T12:48:19.600Z,2.10
2018-03-11T12:50:52.239Z,3.63
2018-03-11T12:53:24.193Z,2.07
2018-03-11T12:55:56.148Z,3.23
2018-03-11T12:58:28.053Z,1.90
2018-03-11T13:01:00.692Z,1.80
2018-03-11T13:03:32.647Z,2.10
2018-03-11T13:06:04.518Z,5.70
2018-03-11T13:08:36.467Z,4.57
2018-03-11T13:11:08.695Z,1.30
2018-03-11T13:13:40.604Z,5.53
2018-03-11T13:16:12.484Z,2.30
2018-03-11T13:18:44.375Z,4.13
2018-03-11T13:21:16.255Z,2.50
2018-03-11T13:23:48.160Z,2.70
2018-03-11T13:26:20.032Z,3.30
2018-03-11T13:28:51.932Z,2.67
2018-03-11T13:31:23.811Z,2.77
2018-03-11T13:34:07.797Z,2.53
2018-03-11T13:36:39.663Z,3.00
2018-03-11T13:39:24.175Z,3.97
2018-03-11T13:41:56.047Z,1.77
2018-03-11T13:44:27.934Z,1.73
2018-03-11T13:47:01.416Z,3.30
2018-03-11T13:49:33.320Z,2.77
2018-03-11T13:52:17.143Z,2.10
2018-03-11T13:54:49.791Z,3.10
2018-03-11T14:00:20.671Z,2.60
2018-03-11T14:02:53.299Z,3.10
2018-03-11T14:05:25.180Z,1.93
2018-03-11T14:07:57.288Z,2.03
2018-03-11T14:10:29.184Z,2.40
2018-03-11T14:13:01.055Z,2.70
2018-03-11T14:15:32.965Z,2.43
2018-03-11T14:18:05.604Z,2.90
2018-03-11T14:20:37.487Z,1.93
2018-03-11T14:23:10.120Z,2.10
2018-03-11T14:25:42.251Z,1.70
2018-03-11T14:28:14.120Z,3.77
2018-03-11T14:30:46.275Z,4.23
2018-03-11T14:33:18.444Z,3.67
2018-03-11T14:35:50.348Z,1.60
2018-03-11T14:38:22.224Z,1.80
2018-03-11T14:40:54.125Z,2.77
2018-03-11T14:43:26.001Z,2.23
2018-03-11T14:45:57.895Z,2.63
2018-03-11T14:48:29.764Z,3.03
2018-03-11T14:51:01.672Z,2.10
2018-03-11T14:53:33.832Z,4.40
2018-03-11T14:56:05.999Z,1.63
2018-03-11T14:58:37.877Z,1.33
2018-03-11T15:01:09.760Z,3.03
2018-03-11T15:03:41.627Z,2.83
2018-03-11T15:06:13.532Z,1.40
2018-03-11T15:08:46.167Z,2.10
2018-03-11T15:11:18.073Z,1.57
2018-03-11T15:13:50.707Z,2.87
2018-03-11T15:16:22.615Z,1.80
2018-03-11T15:18:55.244Z,2.07
2018-03-11T15:21:27.127Z,1.60
2018-03-11T15:23:58.995Z,3.17
2018-03-11T15:26:31.897Z,1.83
2018-03-11T15:29:03.768Z,1.70
2018-03-11T15:31:35.655Z,4.70
2018-03-11T15:34:07.520Z,3.63
2018-03-11T15:36:39.403Z,2.60
2018-03-11T15:39:11.508Z,2.40
2018-03-11T15:41:43.383Z,2.00
2018-03-11T15:44:15.252Z,3.93
2018-03-11T15:46:47.140Z,1.67
2018-03-11T15:49:19.010Z,5.77
2018-03-11T15:51:50.890Z,2.47
2018-03-11T15:54:23.785Z,3.53
2018-03-11T15:56:55.672Z,2.77
2018-03-11T15:59:27.544Z,3.00
2018-03-11T16:01:59.427Z,3.33
2018-03-11T16:04:31.296Z,2.40
2018-03-11T16:07:03.180Z,3.60
2018-03-11T16:09:35.831Z,3.20
2018-03-11T16:12:07.711Z,4.03
2018-03-11T16:14:40.348Z,2.13
2018-03-11T16:17:12.229Z,5.40
2018-03-11T16:19:44.095Z,3.53
2018-03-11T16:22:15.984Z,3.67
2018-03-11T16:24:48.148Z,2.67
2018-03-11T16:27:20.031Z,3.00
2018-03-11T16:29:51.912Z,3.10
2018-03-11T16:32:23.792Z,2.57
2018-03-11T16:34:55.659Z,3.70
2018-03-11T16:37:27.548Z,6.33
2018-03-11T16:39:59.449Z,7.27
2018-03-11T16:42:31.320Z,3.73
2018-03-11T16:45:03.204Z,5.57
2018-03-11T16:47:35.850Z,8.83
2018-03-11T16:50:07.723Z,5.60
2018-03-11T16:52:39.607Z,3.33
2018-03-11T16:55:12.244Z,9.10
2018-03-11T16:57:44.887Z,8.20
2018-03-11T17:00:16.756Z,5.37
2018-03-11T17:02:48.641Z,5.93
2018-03-11T17:05:20.512Z,3.17
2018-03-11T17:07:52.404Z,3.63
2018-03-11T17:10:25.032Z,5.07
2018-03-11T17:12:56.916Z,3.13
2018-03-11T17:15:28.797Z,3.10
2018-03-11T17:18:01.449Z,2.53
2018-03-11T17:20:33.332Z,3.13
2018-03-11T17:23:05.221Z,13.50
2018-03-11T17:25:37.095Z,3.63
2018-03-11T17:28:08.984Z,2.83
2018-03-11T17:30:40.851Z,3.20
2018-03-11T17:33:12.742Z,3.67
2018-03-11T17:35:45.382Z,4.80
2018-03-11T17:38:17.481Z,4.80
2018-03-11T17:40:50.144Z,3.10
2018-03-11T17:43:22.030Z,3.83
2018-03-11T17:45:54.668Z,3.97
2018-03-11T17:48:27.129Z,5.00
2018-03-11T17:50:58.990Z,5.27
2018-03-11T17:53:30.878Z,3.03
2018-03-11T17:56:02.748Z,5.07
2018-03-11T17:58:34.937Z,4.73
2018-03-11T18:01:06.807Z,4.47
2018-03-11T18:03:38.692Z,5.07
2018-03-11T18:06:10.568Z,6.03
2018-03-11T18:08:42.499Z,4.80
2018-03-11T18:11:14.352Z,4.97
2018-03-11T18:13:46.244Z,4.93
2018-03-11T18:16:18.121Z,4.70
2018-03-11T18:18:50.004Z,7.57
2018-03-11T18:21:22.639Z,5.57
2018-03-11T18:23:54.524Z,7.63
2018-03-11T18:26:26.399Z,5.20
2018-03-11T18:28:59.043Z,5.30
2018-03-11T18:31:31.976Z,5.03
2018-03-11T18:34:03.864Z,9.30
2018-03-11T18:36:35.771Z,10.33
2018-03-11T18:39:07.713Z,6.63
2018-03-11T18:41:39.673Z,8.27
2018-03-11T18:44:11.556Z,8.80
2018-03-11T18:46:43.427Z,10.03
2018-03-11T18:49:16.079Z,6.00
2018-03-11T18:51:47.948Z,7.00
2018-03-11T18:54:19.836Z,4.07
2018-03-11T18:56:52.480Z,4.07
2018-03-11T18:59:24.360Z,4.00
2018-03-11T19:01:57.009Z,7.30
2018-03-11T19:04:28.887Z,4.00
2018-03-11T19:07:01.084Z,4.50
2018-03-11T19:09:33.024Z,5.63
2018-03-11T19:12:04.904Z,7.17
2018-03-11T19:14:37.556Z,6.27
2018-03-11T19:17:09.492Z,5.00
2018-03-11T19:19:41.380Z,4.83
2018-03-11T19:22:13.247Z,3.87
2018-03-11T19:24:45.898Z,5.67
2018-03-11T19:27:17.764Z,5.23
2018-03-11T19:29:49.972Z,3.73
2018-03-11T19:32:21.888Z,3.23
2018-03-11T19:34:53.836Z,4.33
2018-03-11T19:37:25.710Z,4.83
2018-03-11T19:39:57.599Z,3.83
2018-03-11T19:42:29.472Z,5.63
2018-03-11T19:45:02.120Z,6.53
2018-03-11T19:47:34.014Z,6.03
2018-03-11T19:50:05.896Z,4.60
2018-03-11T19:52:37.784Z,4.47
2018-03-11T19:55:09.667Z,5.73
2018-03-11T19:57:41.552Z,9.20
2018-03-11T20:00:14.252Z,5.33
2018-03-11T20:02:46.396Z,4.43
2018-03-11T20:05:18.292Z,4.37
2018-03-11T20:07:50.159Z,4.97
2018-03-11T20:10:22.069Z,5.03
2018-03-11T20:12:54.700Z,3.67
2018-03-11T20:15:26.583Z,3.90
2018-03-11T20:17:58.451Z,3.37
2018-03-11T20:20:30.335Z,5.57
2018-03-11T20:23:02.968Z,4.70
2018-03-11T20:25:35.184Z,5.07
2018-03-11T20:28:07.067Z,4.87
2018-03-11T20:30:39.003Z,5.37
2018-03-11T20:33:11.644Z,5.27
2018-03-11T20:35:43.529Z,6.73
2018-03-11T20:38:16.164Z,6.83
2018-03-11T20:40:48.048Z,5.77
2018-03-11T20:43:20.692Z,8.00
2018-03-11T20:45:52.580Z,4.63
2018-03-11T20:48:24.687Z,4.70
